Time;durP1;ratioP1;P1;durP2;ratioP2;P2;SDS_P1;SDS_P2;PMS_P1;PMS_P2;Temp;Humidity;BMP_temperature;BMP_pressure;BME280_temperature;BME280_humidity;BME280_pressure;Samples;Min_cycle;Max_cycle;Signal;HPM_P1;HPM_P2
2023/09/02 00:01:44;;;;;;;8.20;6.30;;;;;;;16.63;84.06;98878.39;225978;1276;22547;-73
2023/09/02 00:06:46;;;;;;;8.90;6.80;;;;;;;16.64;84.10;98865.50;225937;1280;22541;-72
2023/09/02 00:11:48;;;;;;;6.70;6.10;;;;;;;16.64;84.49;98874.89;225955;1277;22609;-73
2023/09/02 00:16:50;;;;;;;7.80;6.20;;;;;;;16.64;84.42;98871.81;225910;1277;22544;-73
2023/09/02 00:21:52;;;;;;;7.50;6.80;;;;;;;16.65;84.58;98869.75;225910;1275;23797;-74
2023/09/02 00:26:54;;;;;;;7.50;6.80;;;;;;;16.66;84.57;98870.89;225948;1280;22567;-73
2023/09/02 00:31:56;;;;;;;8.10;7.30;;;;;;;16.67;84.75;98860.05;225953;1278;22547;-73
2023/09/02 00:36:58;;;;;;;8.40;7.30;;;;;;;16.68;84.84;98865.78;225972;1275;22523;-73
2023/09/02 00:42:01;;;;;;;7.70;6.90;;;;;;;16.67;84.97;98895.80;225925;1278;25213;-73
2023/09/02 00:47:03;;;;;;;10.60;7.60;;;;;;;16.65;85.15;98914.30;225812;1271;22550;-73
2023/09/02 00:52:05;;;;;;;8.60;7.70;;;;;;;16.62;85.38;98905.95;225944;1280;22565;-73
2023/09/02 00:57:08;;;;;;;11.80;8.50;;;;;;;16.59;85.67;98895.83;225956;1278;22543;-74
2023/09/02 01:02:11;;;;;;;10.00;8.30;;;;;;;16.55;85.79;98899.56;225943;1280;23199;-72
2023/09/02 01:07:15;;;;;;;10.30;8.50;;;;;;;16.50;86.07;98914.80;225906;1275;25421;-72
2023/09/02 01:12:17;;;;;;;9.40;8.40;;;;;;;16.45;86.25;98909.09;225948;1262;22555;-73
2023/09/02 01:17:20;;;;;;;8.80;8.00;;;;;;;16.42;86.56;98910.64;225834;1278;22531;-73
2023/09/02 01:22:56;;;;;;;10.00;9.10;;;;;;;16.39;86.78;98903.61;225766;1280;24289;-74
2023/09/02 01:28:14;;;;;;;11.50;9.50;;;;;;;16.38;86.95;98896.39;225934;1275;23120;-74
2023/09/02 01:33:18;;;;;;;10.20;9.20;;;;;;;16.37;87.15;98901.48;225957;1276;22538;-74
2023/09/02 01:38:24;;;;;;;11.40;10.20;;;;;;;16.37;87.36;98900.67;225845;1280;168569;-73
2023/09/02 01:43:29;;;;;;;11.20;9.90;;;;;;;16.37;87.47;98901.95;225911;1278;22570;-74
2023/09/02 01:48:33;;;;;;;12.30;11.20;;;;;;;16.37;87.78;98899.82;225937;1278;22584;-74
2023/09/02 01:53:35;;;;;;;13.50;10.70;;;;;;;16.37;87.87;98892.02;225807;1278;24318;-75
2023/09/02 01:58:37;;;;;;;11.00;9.90;;;;;;;16.35;87.83;98890.80;225906;1275;22542;-75
2023/09/02 02:03:50;;;;;;;11.60;9.90;;;;;;;16.33;87.84;98885.88;225793;1277;22745;-75
2023/09/02 02:08:58;;;;;;;12.50;10.40;;;;;;;16.28;87.88;98897.34;225966;1276;22566;-73
2023/09/02 02:14:04;;;;;;;12.30;11.10;;;;;;;16.27;88.33;98898.38;226001;1276;22541;-73
2023/09/02 02:19:06;;;;;;;11.10;10.00;;;;;;;16.28;88.37;98898.48;225854;1270;22559;-76
2023/09/02 02:24:08;;;;;;;10.80;9.80;;;;;;;16.26;88.27;98898.27;225900;1277;22549;-73
2023/09/02 02:29:10;;;;;;;12.20;10.80;;;;;;;16.23;88.48;98895.41;225901;1275;22647;-74
2023/09/02 02:34:12;;;;;;;12.70;10.80;;;;;;;16.25;88.49;98896.09;225915;1277;22532;-74
2023/09/02 02:39:14;;;;;;;11.40;10.10;;;;;;;16.26;88.68;98907.08;225806;1280;22643;-74
2023/09/02 02:44:15;;;;;;;11.20;9.90;;;;;;;16.27;89.04;98918.10;225896;1278;22644;-74
2023/09/02 02:49:17;;;;;;;10.90;9.80;;;;;;;16.27;89.03;98916.13;225771;1279;22539;-76
2023/09/02 02:54:19;;;;;;;10.30;8.90;;;;;;;16.26;88.97;98912.20;225823;1278;23101;-74
2023/09/02 02:59:21;;;;;;;10.00;8.90;;;;;;;16.23;88.97;98913.66;225955;1275;22551;-74
2023/09/02 03:04:23;;;;;;;10.20;9.10;;;;;;;16.22;89.08;98918.42;225761;1280;25985;-73
2023/09/02 03:09:25;;;;;;;8.30;7.50;;;;;;;16.22;89.47;98922.09;225887;1280;23273;-75
2023/09/02 03:14:27;;;;;;;4.50;4.10;;;;;;;16.19;89.42;98932.02;225889;1278;22643;-74
2023/09/02 03:19:29;;;;;;;4.40;3.50;;;;;;;16.14;89.25;98933.49;225835;1280;22544;-75
2023/09/02 03:24:31;;;;;;;4.50;3.60;;;;;;;16.07;89.20;98937.08;225866;1275;25234;-73
2023/09/02 03:29:33;;;;;;;4.00;3.60;;;;;;;15.99;89.16;98955.73;225785;1280;22574;-74
2023/09/02 03:34:36;;;;;;;5.10;4.60;;;;;;;15.93;89.51;98945.16;225972;1280;22615;-75
2023/09/02 03:39:37;;;;;;;4.60;4.20;;;;;;;15.87;89.60;98954.40;225991;1278;22549;-75
2023/09/02 03:44:39;;;;;;;4.20;3.90;;;;;;;15.82;89.72;98950.98;225844;1278;22536;-74
2023/09/02 03:49:41;;;;;;;4.80;4.40;;;;;;;15.77;89.79;98957.09;225861;1278;25427;-74
2023/09/02 03:54:43;;;;;;;5.50;5.00;;;;;;;15.74;89.81;98961.05;225820;1280;22533;-76
2023/09/02 03:59:45;;;;;;;5.10;4.60;;;;;;;15.72;89.85;98963.22;225964;1278;22554;-75
2023/09/02 04:04:47;;;;;;;5.10;4.70;;;;;;;15.70;90.07;98964.62;225960;1280;23646;-75
2023/09/02 04:09:50;;;;;;;4.90;4.40;;;;;;;15.66;90.18;98964.35;225797;1280;22551;-75
2023/09/02 04:14:52;;;;;;;4.70;4.20;;;;;;;15.65;90.12;98962.72;225904;1278;22540;-76
2023/09/02 04:19:55;;;;;;;5.20;4.80;;;;;;;15.67;90.08;98968.73;225915;1280;22537;-75
2023/09/02 04:24:58;;;;;;;5.00;4.60;;;;;;;15.68;90.21;98967.88;225806;1280;22560;-74
2023/09/02 04:29:59;;;;;;;4.70;4.30;;;;;;;15.70;90.29;98979.13;225782;1280;22756;-75
2023/09/02 04:35:04;;;;;;;4.80;4.40;;;;;;;15.71;90.42;98988.18;225775;1280;22546;-75
2023/09/02 04:40:09;;;;;;;5.30;4.80;;;;;;;15.74;90.47;98987.61;225879;1278;25262;-75
2023/09/02 04:45:11;;;;;;;4.50;4.10;;;;;;;15.76;90.45;98989.35;225814;1278;22564;-75
2023/09/02 04:50:14;;;;;;;5.10;4.50;;;;;;;15.81;90.55;98988.75;225734;1271;22544;-75
2023/09/02 04:55:19;;;;;;;4.30;3.90;;;;;;;15.87;90.55;98993.02;225831;1278;22582;-76
2023/09/02 05:00:30;;;;;;;3.70;3.40;;;;;;;15.94;90.59;98996.27;225964;1278;25392;-75
2023/09/02 05:05:32;;;;;;;4.00;3.60;;;;;;;15.99;90.45;99004.32;225945;1280;22539;-74
2023/09/02 05:10:35;;;;;;;3.50;3.20;;;;;;;16.04;90.58;99009.80;225836;1280;23136;-75
2023/09/02 05:15:37;;;;;;;3.60;3.30;;;;;;;16.07;90.23;99019.79;225809;1280;22553;-74
2023/09/02 05:20:41;;;;;;;3.40;3.00;;;;;;;16.13;90.33;99022.83;225971;1278;22545;-75
2023/09/02 05:25:43;;;;;;;3.60;3.30;;;;;;;16.24;90.38;99021.09;225926;1280;22540;-75
2023/09/02 05:30:45;;;;;;;4.10;3.50;;;;;;;16.31;90.08;99024.55;225938;1279;22549;-75
2023/09/02 05:35:46;;;;;;;3.50;3.20;;;;;;;16.39;90.03;99027.96;225926;1278;22557;-75
2023/09/02 05:40:48;;;;;;;4.00;3.50;;;;;;;16.48;89.95;99037.23;225895;1274;22538;-74
2023/09/02 05:45:50;;;;;;;4.20;3.70;;;;;;;16.56;89.90;99043.15;225886;1278;22527;-74
2023/09/02 05:50:56;;;;;;;3.70;3.40;;;;;;;16.71;89.80;99057.03;225792;1278;22562;-74
2023/09/02 05:55:58;;;;;;;3.20;3.00;;;;;;;16.86;89.60;99062.99;225790;1275;24472;-75
2023/09/02 06:01:04;;;;;;;4.00;3.60;;;;;;;16.98;89.45;99063.33;225917;1278;22527;-74
2023/09/02 06:06:13;;;;;;;4.10;3.80;;;;;;;17.05;89.15;99067.81;225966;1280;22568;-75
2023/09/02 06:11:16;;;;;;;4.40;4.10;;;;;;;17.07;89.14;99063.92;225976;1275;23028;-75
2023/09/02 06:16:17;;;;;;;4.10;3.60;;;;;;;17.07;88.89;99069.05;225816;1280;22583;-75
2023/09/02 06:21:20;;;;;;;2.40;2.20;;;;;;;17.12;88.90;99073.55;225809;1281;22683;-75
2023/09/02 06:26:23;;;;;;;4.10;2.50;;;;;;;17.16;88.60;99084.81;225922;1280;24418;-75
2023/09/02 06:31:25;;;;;;;3.70;3.40;;;;;;;17.13;88.22;99095.56;225920;1272;22553;-74
2023/09/02 06:36:27;;;;;;;4.70;4.30;;;;;;;17.07;88.22;99095.91;225430;1265;22544;-75
2023/09/02 06:41:29;;;;;;;5.00;4.50;;;;;;;17.08;88.45;99087.44;225622;1278;22551;-76
2023/09/02 06:46:33;;;;;;;4.70;4.30;;;;;;;17.17;88.72;99089.27;225693;1278;23658;-75
2023/09/02 06:51:35;;;;;;;4.90;4.20;;;;;;;17.38;88.49;99095.08;225465;1275;22523;-76
2023/09/02 06:56:37;;;;;;;5.90;5.30;;;;;;;17.54;88.09;99098.81;225464;1278;22545;-76
2023/09/02 07:01:39;;;;;;;5.50;5.00;;;;;;;17.64;87.87;99111.48;225446;1274;22544;-76
2023/09/02 07:06:41;;;;;;;6.00;5.40;;;;;;;17.76;87.58;99114.88;225608;1278;23029;-77
2023/09/02 07:11:43;;;;;;;7.30;6.60;;;;;;;17.88;87.53;99123.14;225488;1272;22565;-77
2023/09/02 07:16:45;;;;;;;7.00;6.40;;;;;;;17.94;87.13;99125.54;225637;1280;22691;-77
2023/09/02 07:21:47;;;;;;;6.70;6.10;;;;;;;17.93;87.08;99128.07;225484;1278;22588;-74
2023/09/02 07:26:48;;;;;;;6.40;5.80;;;;;;;17.91;86.73;99135.41;225390;1280;22575;-75
2023/09/02 07:31:50;;;;;;;5.00;4.60;;;;;;;17.91;86.71;99144.09;225515;1273;22636;-76
2023/09/02 07:36:52;;;;;;;4.80;4.40;;;;;;;18.04;86.72;99145.10;225245;1281;22547;-76
2023/09/02 07:41:54;;;;;;;4.60;3.70;;;;;;;18.23;86.50;99145.27;225261;1280;22550;-76
2023/09/02 07:46:57;;;;;;;3.70;3.40;;;;;;;18.49;86.42;99148.63;225248;1279;22716;-76
2023/09/02 07:51:59;;;;;;;4.10;3.70;;;;;;;18.77;86.08;99153.48;225191;1273;22554;-76
2023/09/02 07:57:01;;;;;;;5.10;4.60;;;;;;;18.90;85.48;99164.23;225250;1281;22554;-75
2023/09/02 08:02:03;;;;;;;5.40;4.90;;;;;;;18.97;84.73;99168.18;225208;1280;22555;-76
2023/09/02 08:07:06;;;;;;;6.90;6.30;;;;;;;19.05;84.93;99162.25;225382;1278;25229;-75
2023/09/02 08:12:08;;;;;;;7.70;7.00;;;;;;;19.24;84.64;99167.59;225581;1280;22585;-76
2023/09/02 08:17:10;;;;;;;7.70;7.10;;;;;;;19.44;84.57;99170.65;225737;1267;22565;-76
2023/09/02 08:22:13;;;;;;;7.40;6.70;;;;;;;19.57;83.78;99175.67;225538;1279;22546;-75
2023/09/02 08:27:15;;;;;;;7.60;6.90;;;;;;;19.52;82.61;99179.59;225593;1278;23065;-75
2023/09/02 08:32:17;;;;;;;6.40;5.80;;;;;;;19.66;83.36;99185.50;225694;1280;22624;-76
2023/09/02 08:37:19;;;;;;;5.50;5.00;;;;;;;19.95;82.63;99194.46;225640;1279;22636;-76
2023/09/02 08:42:22;;;;;;;5.60;5.10;;;;;;;20.26;81.97;99196.58;225742;1280;22567;-75
2023/09/02 08:47:24;;;;;;;5.70;5.20;;;;;;;20.41;81.20;99200.94;226024;1280;25231;-75
2023/09/02 08:52:26;;;;;;;5.50;5.00;;;;;;;20.56;80.83;99207.77;225656;1278;25343;-74
2023/09/02 08:57:28;;;;;;;4.90;4.50;;;;;;;20.85;80.60;99213.39;225739;1278;22553;-75
2023/09/02 09:02:32;;;;;;;5.70;5.20;;;;;;;21.11;79.58;99213.77;225694;1280;22580;-74
2023/09/02 09:07:39;;;;;;;4.60;4.30;;;;;;;21.49;79.68;99216.05;225597;1280;23009;-75
2023/09/02 09:12:42;;;;;;;2.70;2.50;;;;;;;21.85;79.18;99219.55;225451;1281;22989;-77
2023/09/02 09:17:44;;;;;;;4.00;3.70;;;;;;;22.29;77.67;99217.88;225436;1269;22647;-77
2023/09/02 09:22:50;;;;;;;2.90;2.70;;;;;;;22.50;77.04;99224.92;225446;1281;22572;-79
2023/09/02 09:27:52;;;;;;;2.50;2.20;;;;;;;22.40;75.86;99235.33;225640;1280;22540;-78
2023/09/02 09:33:01;;;;;;;2.30;2.10;;;;;;;22.06;75.37;99239.89;225492;1280;24398;-78
2023/09/02 09:38:04;;;;;;;2.30;2.10;;;;;;;21.69;75.72;99242.09;225401;1280;22532;-78
2023/09/02 09:43:16;;;;;;;4.20;2.50;;;;;;;21.49;76.18;99246.92;225563;1277;22540;-78
2023/09/02 09:48:19;;;;;;;2.30;2.10;;;;;;;21.61;76.66;99243.39;225899;1275;22540;-77
2023/09/02 09:53:21;;;;;;;4.70;2.40;;;;;;;22.03;76.16;99242.54;225929;1275;22627;-77
2023/09/02 09:58:23;;;;;;;1.40;1.30;;;;;;;22.28;74.98;99237.30;225779;1280;23098;-76
2023/09/02 10:03:30;;;;;;;1.90;1.70;;;;;;;22.14;74.33;99244.48;225871;1279;22521;-78
2023/09/02 10:08:52;;;;;;;2.60;2.40;;;;;;;21.90;74.05;99248.23;225823;1277;22554;-77
2023/09/02 10:13:56;;;;;;;2.50;2.30;;;;;;;21.66;74.04;99254.69;225425;1281;22544;-77
2023/09/02 10:18:58;;;;;;;2.90;2.50;;;;;;;21.51;74.45;99257.02;225669;1279;22562;-77
2023/09/02 10:24:07;;;;;;;2.90;2.60;;;;;;;21.38;74.56;99256.92;225737;1279;22480;-76
2023/09/02 10:29:12;;;;;;;2.50;2.30;;;;;;;21.24;74.78;99263.11;225636;1275;22556;-76
2023/09/02 10:34:31;;;;;;;3.20;2.80;;;;;;;21.22;75.23;99265.30;225569;1279;22579;-76
2023/09/02 10:39:57;;;;;;;2.90;2.40;;;;;;;21.43;75.33;99263.61;225671;1280;22540;-77
2023/09/02 10:45:00;;;;;;;2.70;2.50;;;;;;;21.72;75.23;99260.86;225366;1281;22577;-77
2023/09/02 10:50:04;;;;;;;2.50;2.30;;;;;;;22.14;75.20;99260.70;225605;1280;22549;-77
2023/09/02 10:55:08;;;;;;;2.10;1.90;;;;;;;22.71;74.52;99268.08;225612;1281;22565;-76
2023/09/02 11:00:13;;;;;;;2.00;1.40;;;;;;;23.08;73.36;99271.93;225600;1276;23165;-77
2023/09/02 11:05:16;;;;;;;1.60;1.50;;;;;;;23.39;72.01;99270.71;225288;1273;26138;-76
2023/09/02 11:10:20;;;;;;;2.40;1.90;;;;;;;23.57;71.31;99274.41;225501;1271;22563;-76
2023/09/02 11:15:23;;;;;;;1.90;1.80;;;;;;;23.70;71.23;99278.60;225481;1274;22642;-76
2023/09/02 11:20:25;;;;;;;2.50;1.70;;;;;;;23.78;70.68;99281.34;225731;1277;25570;-76
2023/09/02 11:25:28;;;;;;;1.90;1.80;;;;;;;23.62;69.73;99286.11;225398;1275;25887;-76
2023/09/02 11:30:32;;;;;;;2.10;1.90;;;;;;;23.36;69.43;99289.62;225629;1276;22589;-75
2023/09/02 11:35:36;;;;;;;2.40;1.70;;;;;;;23.26;69.84;99292.20;225843;1277;22754;-76
2023/09/02 11:40:37;;;;;;;1.40;1.40;;;;;;;23.46;70.31;99286.26;225910;1279;22557;-76
2023/09/02 11:45:39;;;;;;;1.20;1.20;;;;;;;23.64;69.16;99292.38;225858;1280;22590;-76
2023/09/02 11:50:41;;;;;;;1.80;1.70;;;;;;;23.64;68.53;99293.83;225872;1276;22565;-75
2023/09/02 11:55:43;;;;;;;2.20;1.40;;;;;;;23.74;68.59;99291.41;225850;1277;22551;-76
2023/09/02 12:00:46;;;;;;;1.00;1.00;;;;;;;23.80;67.82;99287.98;225800;1280;22720;-76
2023/09/02 12:05:57;;;;;;;1.60;1.50;;;;;;;23.93;67.53;99287.58;225861;1280;25321;-76
2023/09/02 12:11:03;;;;;;;2.00;1.90;;;;;;;24.18;67.92;99284.66;225817;1277;22555;-77
2023/09/02 12:16:06;;;;;;;2.30;2.10;;;;;;;24.26;67.57;99285.21;225854;1273;22554;-76
2023/09/02 12:21:08;;;;;;;2.10;1.90;;;;;;;24.25;67.26;99291.41;225812;1277;22548;-76
2023/09/02 12:26:10;;;;;;;2.10;1.80;;;;;;;24.27;67.30;99293.86;225842;1276;25548;-77
2023/09/02 12:31:16;;;;;;;1.80;1.70;;;;;;;24.31;67.11;99295.11;225815;1278;23451;-77
2023/09/02 12:36:19;;;;;;;2.40;2.20;;;;;;;24.39;66.86;99291.41;225820;1278;22514;-76
2023/09/02 12:41:21;;;;;;;1.80;1.60;;;;;;;24.36;66.39;99285.50;225840;1277;22549;-78
2023/09/02 12:46:23;;;;;;;2.10;1.50;;;;;;;24.40;65.72;99282.77;225855;1275;22548;-75
2023/09/02 12:51:28;;;;;;;1.80;1.70;;;;;;;24.51;65.45;99279.55;225891;1280;22550;-76
2023/09/02 12:56:31;;;;;;;1.60;1.50;;;;;;;24.56;64.92;99271.25;225835;1278;22552;-76
2023/09/02 13:01:33;;;;;;;1.50;1.40;;;;;;;24.60;64.74;99273.80;225840;1273;22536;-76
2023/09/02 13:06:35;;;;;;;1.70;1.40;;;;;;;24.64;64.38;99276.88;225806;1276;25309;-76
2023/09/02 13:11:37;;;;;;;1.40;1.30;;;;;;;24.74;64.64;99276.63;225817;1278;22547;-75
2023/09/02 13:16:39;;;;;;;1.40;1.30;;;;;;;24.72;64.23;99276.20;225797;1280;22548;-76
2023/09/02 13:21:41;;;;;;;1.30;1.20;;;;;;;24.71;64.20;99277.06;225799;1280;22547;-76
2023/09/02 13:26:47;;;;;;;1.40;1.30;;;;;;;24.72;63.67;99276.58;225783;1276;26489;-76
2023/09/02 13:31:51;;;;;;;1.40;1.30;;;;;;;24.67;63.30;99273.70;225894;1276;22568;-76
2023/09/02 13:37:16;;;;;;;1.50;1.40;;;;;;;24.74;63.73;99273.71;225504;1280;438995;-76
2023/09/02 13:42:18;;;;;;;1.30;1.20;;;;;;;24.97;63.55;99266.84;225799;1280;22640;-76
2023/09/02 13:47:20;;;;;;;1.50;1.40;;;;;;;25.29;63.38;99269.23;225866;1273;22560;-76
2023/09/02 13:52:23;;;;;;;3.20;1.90;;;;;;;25.28;62.07;99267.81;225839;1276;22552;-76
2023/09/02 13:57:26;;;;;;;2.10;1.80;;;;;;;25.17;62.51;99264.46;225786;1267;22603;-77
2023/09/02 14:02:28;;;;;;;2.20;2.10;;;;;;;25.13;62.92;99266.08;225824;1277;22547;-76
2023/09/02 14:07:35;;;;;;;1.70;1.60;;;;;;;24.95;62.57;99260.39;225845;1273;22816;-76
2023/09/02 14:12:38;;;;;;;1.60;1.50;;;;;;;24.75;62.72;99255.83;225927;1273;22549;-76
2023/09/02 14:17:41;;;;;;;1.80;1.70;;;;;;;24.61;62.93;99256.18;225843;1275;22551;-76
2023/09/02 14:22:43;;;;;;;2.00;1.50;;;;;;;24.46;62.89;99253.66;225871;1275;22734;-77
2023/09/02 14:27:45;;;;;;;1.70;1.60;;;;;;;24.25;63.28;99246.90;225875;1276;22543;-76
2023/09/02 14:32:47;;;;;;;1.60;1.50;;;;;;;24.00;63.38;99254.89;225801;1276;22552;-76
2023/09/02 14:37:48;;;;;;;1.80;1.60;;;;;;;23.89;63.87;99253.39;225819;1276;22542;-76
2023/09/02 14:42:50;;;;;;;1.80;1.40;;;;;;;23.88;63.90;99252.46;225834;1276;22536;-75
2023/09/02 14:47:52;;;;;;;1.70;1.60;;;;;;;23.80;63.83;99259.33;225820;1280;24286;-76
2023/09/02 14:52:54;;;;;;;1.50;1.40;;;;;;;23.71;63.82;99266.80;225808;1280;23048;-75
2023/09/02 14:57:59;;;;;;;1.80;1.70;;;;;;;23.58;63.88;99264.45;225848;1277;22540;-76
2023/09/02 15:03:01;;;;;;;1.80;1.70;;;;;;;23.47;64.09;99264.35;225857;1277;22543;-76
2023/09/02 15:08:05;;;;;;;1.50;1.40;;;;;;;23.45;64.71;99264.01;225896;1276;22617;-76
2023/09/02 15:13:07;;;;;;;2.00;1.60;;;;;;;23.53;64.87;99262.84;225877;1273;22680;-76
2023/09/02 15:18:22;;;;;;;1.50;1.40;;;;;;;23.56;64.62;99260.45;225821;1280;22556;-75
2023/09/02 15:23:24;;;;;;;1.80;1.60;;;;;;;23.48;64.38;99266.84;225833;1276;22625;-76
2023/09/02 15:28:26;;;;;;;2.20;1.60;;;;;;;23.35;64.14;99262.22;225876;1276;23081;-76
2023/09/02 15:33:28;;;;;;;1.60;1.40;;;;;;;23.17;64.52;99266.40;225822;1280;25504;-76
2023/09/02 15:38:30;;;;;;;1.60;1.50;;;;;;;23.05;64.77;99265.44;225677;1279;22556;-76
2023/09/02 15:43:38;;;;;;;2.30;1.70;;;;;;;22.91;64.85;99266.94;225879;1276;22569;-76
2023/09/02 15:48:40;;;;;;;1.70;1.60;;;;;;;22.75;65.04;99272.05;225844;1278;22550;-75
2023/09/02 15:53:42;;;;;;;1.70;1.60;;;;;;;22.59;65.44;99274.63;225822;1280;22563;-76
2023/09/02 15:58:45;;;;;;;1.80;1.70;;;;;;;22.45;65.75;99271.84;225873;1277;22556;-74
2023/09/02 16:03:46;;;;;;;1.60;1.50;;;;;;;22.36;66.02;99272.40;225872;1276;22537;-76
2023/09/02 16:08:48;;;;;;;1.60;1.50;;;;;;;22.33;66.04;99279.14;225884;1276;22585;-75
2023/09/02 16:13:50;;;;;;;3.20;1.50;;;;;;;22.30;66.14;99284.65;225868;1275;22556;-75
2023/09/02 16:18:52;;;;;;;1.70;1.50;;;;;;;22.26;66.29;99280.30;225893;1280;22566;-75
2023/09/02 16:23:56;;;;;;;2.00;1.50;;;;;;;22.19;66.22;99281.83;225842;1276;22524;-75
2023/09/02 16:28:57;;;;;;;2.10;1.40;;;;;;;22.11;66.58;99286.96;225908;1276;23153;-76
2023/09/02 16:34:02;;;;;;;1.90;1.50;;;;;;;22.04;66.60;99295.75;225886;1273;22543;-75
2023/09/02 16:39:04;;;;;;;1.50;1.40;;;;;;;21.98;67.05;99304.76;225852;1276;22536;-75
2023/09/02 16:44:07;;;;;;;1.60;1.50;;;;;;;21.92;67.26;99311.27;225800;1277;22543;-75
2023/09/02 16:49:14;;;;;;;2.00;1.80;;;;;;;21.84;67.63;99312.63;225879;1273;22596;-76
2023/09/02 16:54:16;;;;;;;1.80;1.70;;;;;;;21.75;67.93;99308.30;225876;1276;22561;-76
2023/09/02 16:59:17;;;;;;;2.70;2.10;;;;;;;21.66;68.43;99307.91;225838;1278;22551;-76
2023/09/02 17:04:19;;;;;;;2.30;2.10;;;;;;;21.54;68.75;99304.00;225855;1278;22539;-75
2023/09/02 17:09:28;;;;;;;2.70;2.10;;;;;;;21.38;69.26;99304.09;225944;1276;25489;-75
2023/09/02 17:14:31;;;;;;;2.80;2.60;;;;;;;21.20;69.67;99304.95;225886;1276;22996;-76
2023/09/02 17:19:32;;;;;;;2.90;2.50;;;;;;;20.98;70.26;99299.06;225880;1275;22548;-76
2023/09/02 17:24:35;;;;;;;2.20;1.90;;;;;;;20.78;70.86;99304.02;225936;1276;23270;-75
2023/09/02 17:29:37;;;;;;;3.60;2.90;;;;;;;20.60;71.61;99303.52;225830;1280;22558;-75
2023/09/02 17:34:39;;;;;;;77.40;67.10;;;;;;;20.40;71.96;99300.51;225857;1276;22571;-76
2023/09/02 17:39:41;;;;;;;6.00;5.30;;;;;;;20.21;72.45;99304.17;225895;1280;22905;-76
2023/09/02 17:44:44;;;;;;;4.50;3.70;;;;;;;20.04;73.03;99318.36;225850;1275;22551;-75
2023/09/02 17:49:46;;;;;;;3.70;3.10;;;;;;;19.87;73.51;99326.31;225899;1275;22536;-76
2023/09/02 17:54:48;;;;;;;4.90;3.20;;;;;;;19.71;73.82;99316.73;225824;1278;22546;-75
2023/09/02 17:59:50;;;;;;;3.60;3.10;;;;;;;19.57;74.24;99323.87;225912;1280;25437;-75
2023/09/02 18:04:53;;;;;;;4.30;3.80;;;;;;;19.43;74.82;99330.68;225961;1280;22633;-75
2023/09/02 18:09:55;;;;;;;4.40;3.60;;;;;;;19.30;75.30;99334.35;225778;1279;22566;-75
2023/09/02 18:14:57;;;;;;;6.20;4.40;;;;;;;19.19;75.55;99333.47;225887;1277;24317;-75
2023/09/02 18:20:00;;;;;;;6.70;5.40;;;;;;;19.06;75.82;99337.05;225841;1280;22559;-76
2023/09/02 18:25:02;;;;;;;6.00;5.40;;;;;;;18.94;76.09;99344.05;225896;1276;22549;-75
2023/09/02 18:30:04;;;;;;;8.00;6.90;;;;;;;18.83;76.40;99341.66;225912;1276;22547;-75
2023/09/02 18:35:08;;;;;;;8.90;7.70;;;;;;;18.72;76.64;99341.41;225930;1276;22683;-75
2023/09/02 18:40:11;;;;;;;21.30;16.50;;;;;;;18.61;76.98;99347.30;225934;1273;22560;-75
2023/09/02 18:45:14;;;;;;;12.30;9.20;;;;;;;18.50;77.00;99342.70;225865;1278;23311;-75
2023/09/02 18:50:16;;;;;;;12.50;9.10;;;;;;;18.40;77.19;99345.09;225906;1280;22536;-75
2023/09/02 18:55:18;;;;;;;11.00;9.00;;;;;;;18.29;77.50;99347.64;225989;1277;22603;-75
2023/09/02 19:00:20;;;;;;;10.40;8.30;;;;;;;18.20;78.01;99354.20;225921;1276;22556;-75
2023/09/02 19:05:22;;;;;;;13.20;9.60;;;;;;;18.10;78.15;99359.01;225963;1280;22567;-75
2023/09/02 19:10:24;;;;;;;11.50;10.30;;;;;;;18.02;78.50;99363.29;225948;1276;22537;-74
2023/09/02 19:15:26;;;;;;;11.30;9.50;;;;;;;17.94;78.92;99364.73;225942;1276;25250;-75
2023/09/02 19:20:28;;;;;;;11.90;10.60;;;;;;;17.87;79.32;99363.70;225872;1276;22703;-76
2023/09/02 19:25:30;;;;;;;12.10;10.50;;;;;;;17.80;79.58;99367.39;225917;1276;23620;-75
2023/09/02 19:30:33;;;;;;;11.80;10.30;;;;;;;17.73;79.70;99361.60;225702;1276;22537;-75
2023/09/02 19:35:36;;;;;;;10.20;9.20;;;;;;;17.66;79.93;99358.38;225838;1278;22543;-76
2023/09/02 19:40:38;;;;;;;10.90;9.40;;;;;;;17.58;80.03;99367.91;225948;1280;22535;-76
2023/09/02 19:45:40;;;;;;;12.10;10.50;;;;;;;17.51;80.30;99379.52;225976;1280;22543;-75
2023/09/02 19:50:45;;;;;;;19.60;17.10;;;;;;;17.43;80.45;99381.72;225949;1276;24228;-75
2023/09/02 19:55:48;;;;;;;19.80;16.20;;;;;;;17.35;80.50;99383.34;225956;1265;22576;-75
2023/09/02 20:00:50;;;;;;;17.00;13.20;;;;;;;17.28;80.38;99381.33;225874;1277;22557;-75
2023/09/02 20:05:52;;;;;;;10.60;9.20;;;;;;;17.19;80.59;99383.25;225934;1278;22543;-74
2023/09/02 20:10:54;;;;;;;10.50;9.50;;;;;;;17.13;80.80;99389.13;225964;1275;24284;-75
2023/09/02 20:15:56;;;;;;;10.80;9.70;;;;;;;17.07;80.97;99389.43;225979;1278;22610;-75
2023/09/02 20:20:59;;;;;;;11.30;10.10;;;;;;;17.02;81.16;99386.94;225998;1275;22546;-75
2023/09/02 20:26:09;;;;;;;11.10;10.00;;;;;;;16.99;81.36;99385.50;226001;1277;22631;-75
2023/09/02 20:31:15;;;;;;;9.90;8.10;;;;;;;16.95;81.71;99388.81;225995;1276;22527;-76
2023/09/02 20:36:20;;;;;;;9.30;8.30;;;;;;;16.93;81.80;99381.95;225824;1280;22609;-75
2023/09/02 20:41:22;;;;;;;10.00;8.60;;;;;;;16.94;82.12;99390.09;225684;1279;22938;-75
2023/09/02 20:46:23;;;;;;;10.80;8.90;;;;;;;16.97;82.09;99396.60;225936;1278;22612;-75
2023/09/02 20:51:26;;;;;;;9.70;8.70;;;;;;;17.00;82.43;99403.41;225929;1277;22931;-74
2023/09/02 20:56:30;;;;;;;12.60;11.00;;;;;;;17.04;82.55;99406.32;225797;1280;22541;-75
2023/09/02 21:01:32;;;;;;;14.20;12.20;;;;;;;17.06;82.60;99410.11;225875;1276;25381;-76
2023/09/02 21:06:34;;;;;;;12.70;11.10;;;;;;;17.08;82.69;99409.43;225847;1278;24394;-75
2023/09/02 21:11:39;;;;;;;12.50;10.80;;;;;;;17.08;82.96;99414.65;225834;1280;22607;-74
2023/09/02 21:16:40;;;;;;;12.60;9.90;;;;;;;17.06;83.13;99413.61;226004;1278;22609;-74
2023/09/02 21:21:42;;;;;;;10.80;9.30;;;;;;;17.08;83.17;99409.48;225839;1278;24800;-75
2023/09/02 21:26:44;;;;;;;10.00;9.00;;;;;;;17.08;83.31;99407.88;225921;1280;22668;-74
2023/09/02 21:31:47;;;;;;;11.40;10.00;;;;;;;17.09;83.58;99402.41;225932;1280;22547;-75
2023/09/02 21:37:04;;;;;;;17.50;14.90;;;;;;;17.10;83.56;99396.16;225885;1278;22544;-75
2023/09/02 21:42:06;;;;;;;20.50;18.00;;;;;;;17.10;83.70;99401.29;225835;1278;22607;-74
2023/09/02 21:47:08;;;;;;;21.30;19.00;;;;;;;17.09;83.47;99403.63;225797;1280;22579;-75
2023/09/02 21:52:09;;;;;;;20.30;18.10;;;;;;;17.07;83.69;99405.45;225981;1278;22536;-75
2023/09/02 21:57:11;;;;;;;21.50;18.60;;;;;;;17.06;83.88;99405.08;225963;1277;22545;-74
2023/09/02 22:02:13;;;;;;;18.30;16.20;;;;;;;17.04;83.95;99403.89;225959;1274;22638;-75
2023/09/02 22:07:15;;;;;;;18.40;15.60;;;;;;;17.03;83.95;99401.48;225948;1277;22545;-74
2023/09/02 22:12:18;;;;;;;17.90;16.00;;;;;;;17.01;83.99;99404.03;225943;1278;22547;-75
2023/09/02 22:17:20;;;;;;;17.40;15.30;;;;;;;16.98;84.23;99399.86;225943;1280;22546;-74
2023/09/02 22:22:22;;;;;;;17.00;15.00;;;;;;;16.93;84.18;99404.44;225920;1277;22548;-75
2023/09/02 22:27:25;;;;;;;35.70;29.70;;;;;;;16.86;84.39;99401.73;225941;1278;22566;-75
2023/09/02 22:32:27;;;;;;;37.40;29.30;;;;;;;16.79;84.38;99398.59;225957;1278;22682;-74
2023/09/02 22:37:29;;;;;;;35.00;27.70;;;;;;;16.72;84.54;99401.71;225957;1275;22578;-74
2023/09/02 22:42:30;;;;;;;25.60;21.80;;;;;;;16.67;84.88;99403.65;225963;1278;22542;-74
2023/09/02 22:47:32;;;;;;;24.60;20.70;;;;;;;16.63;84.75;99404.08;225902;1275;22551;-75
2023/09/02 22:52:34;;;;;;;21.90;18.70;;;;;;;16.58;84.91;99400.92;225747;1276;22557;-75
2023/09/02 22:57:36;;;;;;;19.50;17.40;;;;;;;16.52;85.14;99397.80;225841;1278;22564;-75
2023/09/02 23:02:38;;;;;;;18.80;16.50;;;;;;;16.48;85.39;99398.24;225928;1280;22560;-74
2023/09/02 23:07:40;;;;;;;18.30;16.40;;;;;;;16.45;85.57;99391.41;225937;1278;22536;-75
2023/09/02 23:12:42;;;;;;;17.90;15.80;;;;;;;16.41;85.49;99388.92;225854;1280;22552;-74
2023/09/02 23:17:44;;;;;;;16.10;14.50;;;;;;;16.36;85.67;99389.78;225966;1278;22554;-75
2023/09/02 23:22:47;;;;;;;15.70;14.10;;;;;;;16.32;85.94;99385.29;225873;1275;22963;-75